sensor_id;sensor_type;location;lat;lon;timestamp;pressure;altitude;pressure_sealevel;temperature;humidity
46942;BME280;32676;52.630;4.896;2023-03-14T00:00:06;101335.09;;;9.52;78.31
46942;BME280;32676;52.630;4.896;2023-03-14T00:02:33;101321.13;;;9.50;78.77
46942;BME280;32676;52.630;4.896;2023-03-14T00:05:01;101306.31;;;9.48;79.01
46942;BME280;32676;52.630;4.896;2023-03-14T00:07:32;101284.59;;;9.41;79.18
46942;BME280;32676;52.630;4.896;2023-03-14T00:10:00;101288.06;;;9.43;79.44
46942;BME280;32676;52.630;4.896;2023-03-14T00:12:27;101262.78;;;9.39;79.62
46942;BME280;32676;52.630;4.896;2023-03-14T00:14:54;101249.72;;;9.36;79.93
46942;BME280;32676;52.630;4.896;2023-03-14T00:17:20;101240.19;;;9.33;80.07
46942;BME280;32676;52.630;4.896;2023-03-14T00:19:48;101226.25;;;9.30;80.28
46942;BME280;32676;52.630;4.896;2023-03-14T00:22:18;101199.28;;;9.25;80.38
46942;BME280;32676;52.630;4.896;2023-03-14T00:24:45;101183.72;;;9.15;80.49
46942;BME280;32676;52.630;4.896;2023-03-14T00:27:11;101166.19;;;9.17;80.73
46942;BME280;32676;52.630;4.896;2023-03-14T00:29:38;101162.75;;;9.15;80.91
46942;BME280;32676;52.630;4.896;2023-03-14T00:32:05;101150.53;;;9.14;81.01
46942;BME280;32676;52.630;4.896;2023-03-14T00:34:32;101153.16;;;9.14;81.20
46942;BME280;32676;52.630;4.896;2023-03-14T00:36:59;101153.16;;;9.14;81.27
46942;BME280;32676;52.630;4.896;2023-03-14T00:39:26;101159.22;;;9.16;81.40
46942;BME280;32676;52.630;4.896;2023-03-14T00:41:53;101169.66;;;9.19;81.53
46942;BME280;32676;52.630;4.896;2023-03-14T00:44:19;101189.69;;;9.22;81.36
46942;BME280;32676;52.630;4.896;2023-03-14T00:46:46;101192.28;;;9.23;81.15
46942;BME280;32676;52.630;4.896;2023-03-14T00:49:12;101202.72;;;9.27;81.27
46942;BME280;32676;52.630;4.896;2023-03-14T00:51:39;101209.66;;;9.28;81.22
46942;BME280;32676;52.630;4.896;2023-03-14T00:54:05;101203.53;;;9.29;80.87
46942;BME280;32676;52.630;4.896;2023-03-14T00:56:33;101202.72;;;9.27;80.98
46942;BME280;32676;52.630;4.896;2023-03-14T00:59:00;101196.63;;;9.26;81.11
46942;BME280;32676;52.630;4.896;2023-03-14T01:01:26;101190.50;;;9.26;81.07
46942;BME280;32676;52.630;4.896;2023-03-14T01:03:54;101195.72;;;9.26;81.09
46942;BME280;32676;52.630;4.896;2023-03-14T01:06:22;101187.03;;;9.23;81.26
46942;BME280;32676;52.630;4.896;2023-03-14T01:08:49;101184.38;;;9.25;81.27
46942;BME280;32676;52.630;4.896;2023-03-14T01:11:18;101184.41;;;9.23;81.53
46942;BME280;32676;52.630;4.896;2023-03-14T01:13:46;101185.31;;;9.22;81.55
46942;BME280;32676;52.630;4.896;2023-03-14T01:16:13;101188.78;;;9.25;81.68
46942;BME280;32676;52.630;4.896;2023-03-14T01:18:41;101174.84;;;9.22;81.71
46942;BME280;32676;52.630;4.896;2023-03-14T01:21:10;101166.19;;;9.19;82.06
46942;BME280;32676;52.630;4.896;2023-03-14T01:23:37;101166.16;;;9.20;82.01
46942;BME280;32676;52.630;4.896;2023-03-14T01:26:04;101164.41;;;9.19;82.06
46942;BME280;32676;52.630;4.896;2023-03-14T01:28:34;101162.59;;;9.21;82.20
46942;BME280;32676;52.630;4.896;2023-03-14T01:31:04;101160.91;;;9.20;82.28
46942;BME280;32676;52.630;4.896;2023-03-14T01:33:30;101155.66;;;9.20;82.64
46942;BME280;32676;52.630;4.896;2023-03-14T01:35:57;101144.38;;;9.17;82.58
46942;BME280;32676;52.630;4.896;2023-03-14T01:38:23;101130.41;;;9.15;82.64
46942;BME280;32676;52.630;4.896;2023-03-14T01:40:50;101131.28;;;9.15;82.86
46942;BME280;32676;52.630;4.896;2023-03-14T01:43:18;101126.09;;;9.12;82.95
46942;BME280;32676;52.630;4.896;2023-03-14T01:46:14;101107.00;;;9.07;83.10
46942;BME280;32676;52.630;4.896;2023-03-14T01:48:48;101111.25;;;9.11;83.08
46942;BME280;32676;52.630;4.896;2023-03-14T01:51:21;101113.88;;;9.11;83.29
46942;BME280;32676;52.630;4.896;2023-03-14T01:53:49;101118.25;;;9.12;83.34
46942;BME280;32676;52.630;4.896;2023-03-14T01:56:17;101110.38;;;9.12;83.51
46942;BME280;32676;52.630;4.896;2023-03-14T01:58:47;101110.44;;;9.09;83.30
46942;BME280;32676;52.630;4.896;2023-03-14T02:01:18;101098.25;;;9.08;83.53
46942;BME280;32676;52.630;4.896;2023-03-14T02:03:50;101093.97;;;9.04;83.63
46942;BME280;32676;52.630;4.896;2023-03-14T02:06:22;101081.72;;;9.05;83.81
46942;BME280;32676;52.630;4.896;2023-03-14T02:08:51;101075.69;;;9.01;84.12
46942;BME280;32676;52.630;4.896;2023-03-14T02:11:18;101065.19;;;9.01;84.38
46942;BME280;32676;52.630;4.896;2023-03-14T02:13:45;101054.75;;;8.98;84.71
46942;BME280;32676;52.630;4.896;2023-03-14T02:16:12;101052.16;;;8.98;84.63
46942;BME280;32676;52.630;4.896;2023-03-14T02:18:40;101046.06;;;8.96;85.05
46942;BME280;32676;52.630;4.896;2023-03-14T02:21:13;101039.06;;;8.96;85.12
46942;BME280;32676;52.630;4.896;2023-03-14T02:23:49;101026.91;;;8.94;85.19
46942;BME280;32676;52.630;4.896;2023-03-14T02:26:21;101011.25;;;8.91;85.41
46942;BME280;32676;52.630;4.896;2023-03-14T02:28:50;101000.81;;;8.88;85.45
46942;BME280;32676;52.630;4.896;2023-03-14T02:31:18;101002.59;;;8.87;85.58
46942;BME280;32676;52.630;4.896;2023-03-14T02:33:46;100981.66;;;8.86;85.56
46942;BME280;32676;52.630;4.896;2023-03-14T02:36:14;100990.44;;;8.84;85.67
46942;BME280;32676;52.630;4.896;2023-03-14T02:38:45;100989.50;;;8.86;85.71
46942;BME280;32676;52.630;4.896;2023-03-14T02:41:13;101001.72;;;8.87;85.53
46942;BME280;32676;52.630;4.896;2023-03-14T02:43:40;100986.91;;;8.86;85.42
46942;BME280;32676;52.630;4.896;2023-03-14T02:46:10;100985.19;;;8.84;85.35
46942;BME280;32676;52.630;4.896;2023-03-14T02:48:40;100986.91;;;8.86;85.32
46942;BME280;32676;52.630;4.896;2023-03-14T02:51:07;100986.03;;;8.85;85.39
46942;BME280;32676;52.630;4.896;2023-03-14T02:53:35;100980.84;;;8.83;85.27
46942;BME280;32676;52.630;4.896;2023-03-14T02:56:03;100983.44;;;8.83;85.24
46942;BME280;32676;52.630;4.896;2023-03-14T02:58:29;100986.91;;;8.86;85.15
46942;BME280;32676;52.630;4.896;2023-03-14T03:00:56;100989.47;;;8.87;85.06
46942;BME280;32676;52.630;4.896;2023-03-14T03:03:24;100995.56;;;8.88;85.16
46942;BME280;32676;52.630;4.896;2023-03-14T03:05:50;100998.16;;;8.89;85.08
46942;BME280;32676;52.630;4.896;2023-03-14T03:08:17;101000.75;;;8.91;85.20
46942;BME280;32676;52.630;4.896;2023-03-14T03:10:44;101007.75;;;8.92;85.14
46942;BME280;32676;52.630;4.896;2023-03-14T03:13:10;101013.84;;;8.92;85.00
46942;BME280;32676;52.630;4.896;2023-03-14T03:15:37;101009.44;;;8.93;85.03
46942;BME280;32676;52.630;4.896;2023-03-14T03:18:03;101015.56;;;8.93;84.91
46942;BME280;32676;52.630;4.896;2023-03-14T03:20:31;101016.44;;;8.94;84.76
46942;BME280;32676;52.630;4.896;2023-03-14T03:22:58;101025.09;;;8.96;84.84
46942;BME280;32676;52.630;4.896;2023-03-14T03:25:25;101032.91;;;8.99;84.77
46942;BME280;32676;52.630;4.896;2023-03-14T03:27:52;101031.16;;;8.99;84.61
46942;BME280;32676;52.630;4.896;2023-03-14T03:30:18;101045.94;;;9.02;84.64
46942;BME280;32676;52.630;4.896;2023-03-14T03:32:45;101063.34;;;9.06;84.66
46942;BME280;32676;52.630;4.896;2023-03-14T03:35:12;101075.50;;;9.09;84.43
46942;BME280;32676;52.630;4.896;2023-03-14T03:37:40;101083.31;;;9.12;84.23
46942;BME280;32676;52.630;4.896;2023-03-14T03:40:08;101093.75;;;9.13;84.22
46942;BME280;32676;52.630;4.896;2023-03-14T03:42:35;101099.84;;;9.15;84.15
46942;BME280;32676;52.630;4.896;2023-03-14T03:45:02;101105.88;;;9.19;83.91
46942;BME280;32676;52.630;4.896;2023-03-14T03:47:30;101110.22;;;9.18;84.01
46942;BME280;32676;52.630;4.896;2023-03-14T03:49:56;101119.81;;;9.21;83.96
46942;BME280;32676;52.630;4.896;2023-03-14T03:52:23;101129.34;;;9.23;83.79
46942;BME280;32676;52.630;4.896;2023-03-14T03:54:50;101136.34;;;9.25;83.89
46942;BME280;32676;52.630;4.896;2023-03-14T03:57:17;101122.41;;;9.22;84.02
46942;BME280;32676;52.630;4.896;2023-03-14T03:59:43;101112.81;;;9.20;84.31
46942;BME280;32676;52.630;4.896;2023-03-14T04:02:10;101108.47;;;9.20;84.67
46942;BME280;32676;52.630;4.896;2023-03-14T04:04:37;101089.34;;;9.15;85.02
46942;BME280;32676;52.630;4.896;2023-03-14T04:07:04;101063.34;;;9.06;85.19
46942;BME280;32676;52.630;4.896;2023-03-14T04:09:32;101014.56;;;8.99;86.05
46942;BME280;32676;52.630;4.896;2023-03-14T04:12:00;101000.69;;;8.94;86.79
46942;BME280;32676;52.630;4.896;2023-03-14T04:14:26;100984.22;;;8.89;87.33
46942;BME280;32676;52.630;4.896;2023-03-14T04:16:53;100962.44;;;8.87;87.80
46942;BME280;32676;52.630;4.896;2023-03-14T04:19:20;100957.25;;;8.83;88.11
46942;BME280;32676;52.630;4.896;2023-03-14T04:21:46;100939.00;;;8.80;88.38
46942;BME280;32676;52.630;4.896;2023-03-14T04:24:13;100943.31;;;8.81;88.51
46942;BME280;32676;52.630;4.896;2023-03-14T04:26:39;100932.03;;;8.79;88.74
46942;BME280;32676;52.630;4.896;2023-03-14T04:29:07;100929.41;;;8.79;89.09
46942;BME280;32676;52.630;4.896;2023-03-14T04:31:34;100941.63;;;8.80;89.21
46942;BME280;32676;52.630;4.896;2023-03-14T04:34:00;100931.16;;;8.79;89.29
46942;BME280;32676;52.630;4.896;2023-03-14T04:36:27;100924.16;;;8.79;89.34
46942;BME280;32676;52.630;4.896;2023-03-14T04:38:53;100913.84;;;8.73;89.49
46942;BME280;32676;52.630;4.896;2023-03-14T04:41:20;100915.47;;;8.77;89.42
46942;BME280;32676;52.630;4.896;2023-03-14T04:43:46;100903.41;;;8.70;89.45
46942;BME280;32676;52.630;4.896;2023-03-14T04:46:14;100903.34;;;8.73;89.47
46942;BME280;32676;52.630;4.896;2023-03-14T04:48:40;100881.66;;;8.67;89.63
46942;BME280;32676;52.630;4.896;2023-03-14T04:51:07;100884.16;;;8.71;89.81
46942;BME280;32676;52.630;4.896;2023-03-14T04:53:34;100876.41;;;8.68;89.91
46942;BME280;32676;52.630;4.896;2023-03-14T04:56:02;100874.63;;;8.69;89.85
46942;BME280;32676;52.630;4.896;2023-03-14T04:58:28;100876.41;;;8.68;89.86
46942;BME280;32676;52.630;4.896;2023-03-14T05:00:55;100882.53;;;8.67;89.88
46942;BME280;32676;52.630;4.896;2023-03-14T05:03:25;100885.13;;;8.69;89.72
46942;BME280;32676;52.630;4.896;2023-03-14T05:05:51;100879.88;;;8.69;89.82
46942;BME280;32676;52.630;4.896;2023-03-14T05:08:18;100879.03;;;8.68;89.85
46942;BME280;32676;52.630;4.896;2023-03-14T05:10:51;100871.16;;;8.68;89.89
46942;BME280;32676;52.630;4.896;2023-03-14T05:13:20;100856.47;;;8.62;89.92
46942;BME280;32676;52.630;4.896;2023-03-14T05:15:46;100862.47;;;8.66;89.91
46942;BME280;32676;52.630;4.896;2023-03-14T05:18:13;100853.78;;;8.64;89.89
46942;BME280;32676;52.630;4.896;2023-03-14T05:20:40;100823.41;;;8.57;89.62
46942;BME280;32676;52.630;4.896;2023-03-14T05:23:08;100793.03;;;8.50;89.19
46942;BME280;32676;52.630;4.896;2023-03-14T05:25:34;100757.44;;;8.39;88.43
46942;BME280;32676;52.630;4.896;2023-03-14T05:28:01;100733.13;;;8.34;87.73
46942;BME280;32676;52.630;4.896;2023-03-14T05:30:27;100705.31;;;8.30;87.16
46942;BME280;32676;52.630;4.896;2023-03-14T05:32:57;100688.88;;;8.25;86.88
46942;BME280;32676;52.630;4.896;2023-03-14T05:35:23;100679.38;;;8.21;86.69
46942;BME280;32676;52.630;4.896;2023-03-14T05:37:51;100651.56;;;8.17;86.58
46942;BME280;32676;52.630;4.896;2023-03-14T05:40:17;100629.88;;;8.12;86.65
46942;BME280;32676;52.630;4.896;2023-03-14T05:42:44;100592.56;;;8.03;86.73
46942;BME280;32676;52.630;4.896;2023-03-14T05:45:10;100567.47;;;7.96;86.49
46942;BME280;32676;52.630;4.896;2023-03-14T05:47:37;100520.66;;;7.85;86.14
46942;BME280;32676;52.630;4.896;2023-03-14T05:50:04;100492.06;;;7.78;85.71
46942;BME280;32676;52.630;4.896;2023-03-14T05:52:31;100464.34;;;7.72;85.31
46942;BME280;32676;52.630;4.896;2023-03-14T05:54:59;100433.16;;;7.64;85.04
46942;BME280;32676;52.630;4.896;2023-03-14T05:57:26;100402.84;;;7.57;84.90
46942;BME280;32676;52.630;4.896;2023-03-14T05:59:53;100369.91;;;7.50;84.91
46942;BME280;32676;52.630;4.896;2023-03-14T06:02:19;100349.13;;;7.45;85.08
46942;BME280;32676;52.630;4.896;2023-03-14T06:04:45;100341.31;;;7.44;85.29
46942;BME280;32676;52.630;4.896;2023-03-14T06:07:12;100330.97;;;7.41;85.60
46942;BME280;32676;52.630;4.896;2023-03-14T06:09:38;100320.59;;;7.38;85.62
46942;BME280;32676;52.630;4.896;2023-03-14T06:12:07;100310.19;;;7.35;85.81
46942;BME280;32676;52.630;4.896;2023-03-14T06:14:33;100288.50;;;7.31;85.99
46942;BME280;32676;52.630;4.896;2023-03-14T06:17:00;100258.28;;;7.22;85.84
46942;BME280;32676;52.630;4.896;2023-03-14T06:19:26;100242.69;;;7.19;85.62
46942;BME280;32676;52.630;4.896;2023-03-14T06:21:53;100235.75;;;7.18;85.50
46942;BME280;32676;52.630;4.896;2023-03-14T06:24:19;100244.38;;;7.20;85.34
46942;BME280;32676;52.630;4.896;2023-03-14T06:26:46;100266.84;;;7.27;85.00
46942;BME280;32676;52.630;4.896;2023-03-14T06:29:13;100285.88;;;7.33;84.53
46942;BME280;32676;52.630;4.896;2023-03-14T06:31:40;100305.06;;;7.32;84.13
46942;BME280;32676;52.630;4.896;2023-03-14T06:34:06;100344.78;;;7.46;83.87
46942;BME280;32676;52.630;4.896;2023-03-14T06:36:33;100367.22;;;7.53;83.66
46942;BME280;32676;52.630;4.896;2023-03-14T06:38:59;100349.94;;;7.47;83.56
46942;BME280;32676;52.630;4.896;2023-03-14T06:41:26;100332.66;;;7.42;83.35
46942;BME280;32676;52.630;4.896;2023-03-14T06:43:52;100299.75;;;7.35;83.29
46942;BME280;32676;52.630;4.896;2023-03-14T06:46:20;100242.63;;;7.22;83.05
46942;BME280;32676;52.630;4.896;2023-03-14T06:48:47;100202.00;;;7.10;82.98
46942;BME280;32676;52.630;4.896;2023-03-14T06:51:13;100132.88;;;6.91;82.60
46942;BME280;32676;52.630;4.896;2023-03-14T06:53:40;100087.03;;;6.82;82.25
46942;BME280;32676;52.630;4.896;2023-03-14T06:56:07;100045.47;;;6.73;81.76
46942;BME280;32676;52.630;4.896;2023-03-14T06:58:34;99985.03;;;6.59;81.37
46942;BME280;32676;52.630;4.896;2023-03-14T07:01:00;99947.03;;;6.48;81.24
46942;BME280;32676;52.630;4.896;2023-03-14T07:03:28;99924.53;;;6.44;80.97
46942;BME280;32676;52.630;4.896;2023-03-14T07:05:55;99870.31;;;6.26;80.97
46942;BME280;32676;52.630;4.896;2023-03-14T07:08:21;99820.91;;;6.20;80.93
46942;BME280;32676;52.630;4.896;2023-03-14T07:10:48;99783.00;;;6.09;80.61
46942;BME280;32676;52.630;4.896;2023-03-14T07:13:14;99745.06;;;5.99;80.77
46942;BME280;32676;52.630;4.896;2023-03-14T07:15:40;99719.06;;;5.96;80.62
46942;BME280;32676;52.630;4.896;2023-03-14T07:18:07;99717.44;;;5.92;80.66
46942;BME280;32676;52.630;4.896;2023-03-14T07:20:35;99713.91;;;5.93;80.76
46942;BME280;32676;52.630;4.896;2023-03-14T07:23:01;99727.78;;;5.95;80.77
46942;BME280;32676;52.630;4.896;2023-03-14T07:25:28;99738.13;;;5.98;80.88
46942;BME280;32676;52.630;4.896;2023-03-14T07:27:55;99759.66;;;6.05;80.69
46942;BME280;32676;52.630;4.896;2023-03-14T07:30:22;99774.34;;;6.07;80.78
46942;BME280;32676;52.630;4.896;2023-03-14T07:32:48;99782.06;;;6.10;80.62
46942;BME280;32676;52.630;4.896;2023-03-14T07:35:15;99788.09;;;6.12;80.52
46942;BME280;32676;52.630;4.896;2023-03-14T07:37:43;99812.28;;;6.18;80.97
46942;BME280;32676;52.630;4.896;2023-03-14T07:40:10;99805.47;;;6.13;80.49
46942;BME280;32676;52.630;4.896;2023-03-14T07:42:40;99816.66;;;6.17;80.29
46942;BME280;32676;52.630;4.896;2023-03-14T07:45:08;99814.84;;;6.19;79.91
46942;BME280;32676;52.630;4.896;2023-03-14T07:47:35;99819.16;;;6.20;79.80
46942;BME280;32676;52.630;4.896;2023-03-14T07:50:01;99819.22;;;6.19;79.44
46942;BME280;32676;52.630;4.896;2023-03-14T07:52:28;99800.13;;;6.17;79.18
46942;BME280;32676;52.630;4.896;2023-03-14T07:54:56;99800.13;;;6.17;78.71
46942;BME280;32676;52.630;4.896;2023-03-14T07:57:22;99820.03;;;6.21;78.22
46942;BME280;32676;52.630;4.896;2023-03-14T07:59:49;99847.69;;;6.26;77.80
46942;BME280;32676;52.630;4.896;2023-03-14T08:02:16;99860.56;;;6.31;77.36
46942;BME280;32676;52.630;4.896;2023-03-14T08:04:45;99888.19;;;6.38;77.09
46942;BME280;32676;52.630;4.896;2023-03-14T08:07:11;99922.75;;;6.46;76.69
46942;BME280;32676;52.630;4.896;2023-03-14T08:09:38;99965.91;;;6.57;76.24
46942;BME280;32676;52.630;4.896;2023-03-14T08:12:06;99990.13;;;6.62;75.92
46942;BME280;32676;52.630;4.896;2023-03-14T08:14:33;99994.41;;;6.64;75.54
46942;BME280;32676;52.630;4.896;2023-03-14T08:17:00;100024.59;;;6.73;75.27
46942;BME280;32676;52.630;4.896;2023-03-14T08:19:26;100051.44;;;6.78;74.90
46942;BME280;32676;52.630;4.896;2023-03-14T08:21:53;100086.91;;;6.85;74.44
46942;BME280;32676;52.630;4.896;2023-03-14T08:24:19;100111.06;;;6.94;74.23
46942;BME280;32676;52.630;4.896;2023-03-14T08:26:46;100111.09;;;6.92;73.83
46942;BME280;32676;52.630;4.896;2023-03-14T08:29:14;100155.25;;;7.01;73.63
46942;BME280;32676;52.630;4.896;2023-03-14T08:31:40;100178.53;;;7.09;73.74
46942;BME280;32676;52.630;4.896;2023-03-14T08:34:07;100213.16;;;7.17;73.88
46942;BME280;32676;52.630;4.896;2023-03-14T08:36:33;100213.91;;;7.21;73.54
46942;BME280;32676;52.630;4.896;2023-03-14T08:39:00;100212.25;;;7.17;73.41
46942;BME280;32676;52.630;4.896;2023-03-14T08:41:28;100217.41;;;7.20;73.28
46942;BME280;32676;52.630;4.896;2023-03-14T08:43:55;100239.91;;;7.25;73.25
46942;BME280;32676;52.630;4.896;2023-03-14T08:46:23;100252.88;;;7.28;73.26
46942;BME280;32676;52.630;4.896;2023-03-14T08:48:49;100239.00;;;7.26;73.46
46942;BME280;32676;52.630;4.896;2023-03-14T08:51:16;100225.22;;;7.21;73.25
46942;BME280;32676;52.630;4.896;2023-03-14T08:53:43;100168.19;;;7.06;73.59
46942;BME280;32676;52.630;4.896;2023-03-14T08:56:09;100121.41;;;6.97;73.83
46942;BME280;32676;52.630;4.896;2023-03-14T08:58:36;100111.06;;;6.94;73.66
46942;BME280;32676;52.630;4.896;2023-03-14T09:01:03;100089.44;;;6.88;73.13
46942;BME280;32676;52.630;4.896;2023-03-14T09:03:31;100092.94;;;6.87;72.84
46942;BME280;32676;52.630;4.896;2023-03-14T09:06:02;100055.78;;;6.79;72.59
46942;BME280;32676;52.630;4.896;2023-03-14T09:08:29;100028.09;;;6.73;72.17
46942;BME280;32676;52.630;4.896;2023-03-14T09:10:56;100012.53;;;6.69;71.87
46942;BME280;32676;52.630;4.896;2023-03-14T09:13:22;100017.88;;;6.66;71.84
46942;BME280;32676;52.630;4.896;2023-03-14T09:15:50;100061.84;;;6.80;71.61
46942;BME280;32676;52.630;4.896;2023-03-14T09:18:17;100086.84;;;6.88;71.65
46942;BME280;32676;52.630;4.896;2023-03-14T09:20:45;100147.38;;;7.03;71.70
46942;BME280;32676;52.630;4.896;2023-03-14T09:23:12;100188.00;;;7.13;71.64
46942;BME280;32676;52.630;4.896;2023-03-14T09:25:38;100224.31;;;7.22;71.60
46942;BME280;32676;52.630;4.896;2023-03-14T09:28:05;100271.91;;;7.34;71.26
46942;BME280;32676;52.630;4.896;2023-03-14T09:30:31;100283.13;;;7.37;70.88
46942;BME280;32676;52.630;4.896;2023-03-14T09:32:58;100280.56;;;7.36;70.03
46942;BME280;32676;52.630;4.896;2023-03-14T09:35:25;100259.72;;;7.33;69.71
46942;BME280;32676;52.630;4.896;2023-03-14T09:37:53;100260.69;;;7.30;69.44
46942;BME280;32676;52.630;4.896;2023-03-14T09:40:21;100236.47;;;7.23;69.27
46942;BME280;32676;52.630;4.896;2023-03-14T09:42:50;100227.75;;;7.24;68.80
46942;BME280;32676;52.630;4.896;2023-03-14T09:45:23;100231.25;;;7.23;68.51
46942;BME280;32676;52.630;4.896;2023-03-14T09:47:51;100251.09;;;7.30;68.13
46942;BME280;32676;52.630;4.896;2023-03-14T09:50:19;100264.09;;;7.32;67.29
46942;BME280;32676;52.630;4.896;2023-03-14T09:52:48;100268.38;;;7.35;66.28
46942;BME280;32676;52.630;4.896;2023-03-14T09:55:20;100290.94;;;7.39;65.61
46942;BME280;32676;52.630;4.896;2023-03-14T09:57:48;100315.16;;;7.44;64.86
46942;BME280;32676;52.630;4.896;2023-03-14T10:00:20;100303.03;;;7.43;64.25
46942;BME280;32676;52.630;4.896;2023-03-14T10:02:50;100261.47;;;7.34;63.39
46942;BME280;32676;52.630;4.896;2023-03-14T10:05:21;100263.25;;;7.32;62.67
46942;BME280;32676;52.630;4.896;2023-03-14T10:07:48;100248.53;;;7.27;62.57
46942;BME280;32676;52.630;4.896;2023-03-14T10:10:19;100245.94;;;7.27;62.48
46942;BME280;32676;52.630;4.896;2023-03-14T10:12:47;100240.72;;;7.27;62.02
46942;BME280;32676;52.630;4.896;2023-03-14T10:15:15;100258.03;;;7.32;61.92
46942;BME280;32676;52.630;4.896;2023-03-14T10:17:50;100278.78;;;7.36;61.83
46942;BME280;32676;52.630;4.896;2023-03-14T10:20:31;100300.44;;;7.41;61.25
46942;BME280;32676;52.630;4.896;2023-03-14T10:23:02;100322.06;;;7.48;60.96
46942;BME280;32676;52.630;4.896;2023-03-14T10:25:32;100356.66;;;7.56;60.95
46942;BME280;32676;52.630;4.896;2023-03-14T10:27:59;100399.13;;;7.66;60.80
46942;BME280;32676;52.630;4.896;2023-03-14T10:30:30;100391.31;;;7.64;60.45
46942;BME280;32676;52.630;4.896;2023-03-14T10:33:07;100410.44;;;7.66;59.02
46942;BME280;32676;52.630;4.896;2023-03-14T10:35:34;100414.69;;;7.71;58.35
46942;BME280;32676;52.630;4.896;2023-03-14T10:38:02;100438.91;;;7.77;57.84
46942;BME280;32676;52.630;4.896;2023-03-14T10:40:32;100451.03;;;7.80;57.45
46942;BME280;32676;52.630;4.896;2023-03-14T10:43:00;100458.81;;;7.83;56.88
46942;BME280;32676;52.630;4.896;2023-03-14T10:45:34;100458.81;;;7.83;56.09
46942;BME280;32676;52.630;4.896;2023-03-14T10:48:20;100503.00;;;7.94;55.83
46942;BME280;32676;52.630;4.896;2023-03-14T10:50:50;100488.34;;;7.88;55.85
46942;BME280;32676;52.630;4.896;2023-03-14T10:53:19;100457.09;;;7.82;55.27
46942;BME280;32676;52.630;4.896;2023-03-14T10:55:47;100453.59;;;7.83;54.41
46942;BME280;32676;52.630;4.896;2023-03-14T10:58:22;100470.06;;;7.86;54.10
46942;BME280;32676;52.630;4.896;2023-03-14T11:00:51;100488.22;;;7.91;53.84
46942;BME280;32676;52.630;4.896;2023-03-14T11:03:19;100515.94;;;7.98;54.32
46942;BME280;32676;52.630;4.896;2023-03-14T11:05:50;100516.06;;;7.95;54.33
46942;BME280;32676;52.630;4.896;2023-03-14T11:08:24;100511.63;;;7.97;53.63
46942;BME280;32676;52.630;4.896;2023-03-14T11:10:54;100500.50;;;7.89;53.47
46942;BME280;32676;52.630;4.896;2023-03-14T11:13:25;100505.59;;;7.95;53.79
46942;BME280;32676;52.630;4.896;2023-03-14T11:16:02;100538.44;;;8.05;54.45
46942;BME280;32676;52.630;4.896;2023-03-14T11:18:53;100574.00;;;8.13;54.66
46942;BME280;32676;52.630;4.896;2023-03-14T11:21:26;100567.97;;;8.11;54.22
46942;BME280;32676;52.630;4.896;2023-03-14T11:24:06;100572.31;;;8.12;53.20
46942;BME280;32676;52.630;4.896;2023-03-14T11:26:42;100569.69;;;8.12;52.41
46942;BME280;32676;52.630;4.896;2023-03-14T11:29:20;100563.66;;;8.10;51.75
46942;BME280;32676;52.630;4.896;2023-03-14T11:31:47;100536.72;;;8.04;51.71
46942;BME280;32676;52.630;4.896;2023-03-14T11:34:16;100482.09;;;7.92;51.32
46942;BME280;32676;52.630;4.896;2023-03-14T11:36:46;100493.38;;;7.94;51.13
46942;BME280;32676;52.630;4.896;2023-03-14T11:39:19;100490.78;;;7.94;51.09
46942;BME280;32676;52.630;4.896;2023-03-14T11:41:49;100510.72;;;7.98;51.16
46942;BME280;32676;52.630;4.896;2023-03-14T11:44:19;100548.88;;;8.07;51.21
46942;BME280;32676;52.630;4.896;2023-03-14T11:46:48;100504.63;;;7.98;50.88
46942;BME280;32676;52.630;4.896;2023-03-14T11:49:26;100494.19;;;7.96;50.34
46942;BME280;32676;52.630;4.896;2023-03-14T11:51:56;100463.88;;;7.89;49.81
46942;BME280;32676;52.630;4.896;2023-03-14T11:54:31;100463.97;;;7.86;49.70
46942;BME280;32676;52.630;4.896;2023-03-14T11:57:01;100486.47;;;7.93;49.98
46942;BME280;32676;52.630;4.896;2023-03-14T11:59:44;100492.50;;;7.95;49.93
46942;BME280;32676;52.630;4.896;2023-03-14T12:02:19;100498.53;;;7.97;49.23
46942;BME280;32676;52.630;4.896;2023-03-14T12:04:54;100502.03;;;7.96;49.09
46942;BME280;32676;52.630;4.896;2023-03-14T12:07:29;100481.22;;;7.93;48.95
46942;BME280;32676;52.630;4.896;2023-03-14T12:09:58;100510.63;;;8.01;48.85
46942;BME280;32676;52.630;4.896;2023-03-14T12:12:26;100508.91;;;8.00;49.56
46942;BME280;32676;52.630;4.896;2023-03-14T12:14:56;100536.63;;;8.07;49.59
46942;BME280;32676;52.630;4.896;2023-03-14T12:17:25;100552.25;;;8.11;49.94
46942;BME280;32676;52.630;4.896;2023-03-14T12:20:03;100574.81;;;8.15;50.05
46942;BME280;32676;52.630;4.896;2023-03-14T12:22:34;100604.28;;;8.23;50.20
46942;BME280;32676;52.630;4.896;2023-03-14T12:25:05;100606.88;;;8.24;50.09
46942;BME280;32676;52.630;4.896;2023-03-14T12:27:48;100571.31;;;8.16;50.66
46942;BME280;32676;52.630;4.896;2023-03-14T12:30:24;100571.31;;;8.16;50.37
46942;BME280;32676;52.630;4.896;2023-03-14T12:33:20;100582.59;;;8.18;50.46
46942;BME280;32676;52.630;4.896;2023-03-14T12:35:49;100566.09;;;8.16;50.13
46942;BME280;32676;52.630;4.896;2023-03-14T12:38:18;100608.53;;;8.27;49.60
46942;BME280;32676;52.630;4.896;2023-03-14T12:40:54;100623.34;;;8.28;50.03
46942;BME280;32676;52.630;4.896;2023-03-14T12:43:26;100618.13;;;8.28;50.39
46942;BME280;32676;52.630;4.896;2023-03-14T12:46:08;100624.16;;;8.30;50.28
46942;BME280;32676;52.630;4.896;2023-03-14T12:48:37;100625.06;;;8.29;50.26
46942;BME280;32676;52.630;4.896;2023-03-14T12:51:12;100645.84;;;8.35;50.22
46942;BME280;32676;52.630;4.896;2023-03-14T12:56:45;100663.19;;;8.39;50.06
46942;BME280;32676;52.630;4.896;2023-03-14T12:59:31;100644.13;;;8.34;49.67
46942;BME280;32676;52.630;4.896;2023-03-14T13:02:23;100627.63;;;8.31;49.32
46942;BME280;32676;52.630;4.896;2023-03-14T13:04:52;100655.44;;;8.35;49.55
46942;BME280;32676;52.630;4.896;2023-03-14T13:07:34;100693.56;;;8.48;49.22
46942;BME280;32676;52.630;4.896;2023-03-14T13:10:17;100701.38;;;8.50;48.96
46942;BME280;32676;52.630;4.896;2023-03-14T13:12:50;100709.28;;;8.48;48.73